Time;durP1;ratioP1;P1;durP2;ratioP2;P2;SDS_P1;SDS_P2;PMS_P1;PMS_P2;Temp;Humidity;BMP_temperature;BMP_pressure;BME280_temperature;BME280_humidity;BME280_pressure;Samples;Min_cycle;Max_cycle;Signal;HPM_P1;HPM_P2
2023/03/15 00:01:20;;;;;;;12.10;5.82;;;22.20;56.30;;;;;;5073750;28;20410;-79
2023/03/15 00:03:47;;;;;;;13.88;6.80;;;22.30;56.30;;;;;;5073434;28;20558;-79
2023/03/15 00:06:13;;;;;;;15.32;6.28;;;22.30;56.20;;;;;;5074612;28;20059;-79
2023/03/15 00:08:39;;;;;;;15.98;5.93;;;22.20;55.90;;;;;;5074486;28;20357;-78
2023/03/15 00:11:05;;;;;;;18.02;6.55;;;22.20;56.00;;;;;;5074524;28;20048;-78
2023/03/15 00:13:32;;;;;;;13.23;6.18;;;22.20;56.00;;;;;;5074591;28;20147;-79
2023/03/15 00:16:00;;;;;;;19.27;6.97;;;22.10;56.00;;;;;;5074558;28;20074;-79
2023/03/15 00:18:26;;;;;;;14.10;5.95;;;22.10;56.00;;;;;;5056391;28;20032;-79
2023/03/15 00:20:53;;;;;;;13.82;5.18;;;22.10;56.10;;;;;;5074284;28;20024;-78
2023/03/15 00:23:19;;;;;;;14.85;6.38;;;22.10;56.00;;;;;;5074393;28;20035;-78
2023/03/15 00:25:47;;;;;;;21.58;7.32;;;22.20;55.80;;;;;;5074187;28;20032;-79
2023/03/15 00:28:13;;;;;;;19.05;8.68;;;22.00;55.60;;;;;;5056563;28;20116;-79
2023/03/15 00:30:39;;;;;;;16.38;8.13;;;22.10;55.80;;;;;;5073870;28;20028;-79
2023/03/15 00:33:07;;;;;;;17.98;7.97;;;22.10;55.80;;;;;;5074072;28;20033;-78
2023/03/15 00:35:37;;;;;;;22.83;7.68;;;22.00;55.70;;;;;;5031278;28;20053;-78
2023/03/15 00:38:04;;;;;;;26.33;9.07;;;22.10;55.80;;;;;;5031397;28;20044;-79
2023/03/15 00:40:30;;;;;;;22.90;8.40;;;21.90;55.70;;;;;;5031048;28;20053;-79
2023/03/15 00:42:57;;;;;;;15.82;7.35;;;21.90;55.80;;;;;;5031584;28;20034;-79
2023/03/15 00:45:23;;;;;;;20.30;8.57;;;22.00;55.80;;;;;;5031196;28;20044;-79
2023/03/15 00:47:51;;;;;;;26.23;8.10;;;21.90;55.80;;;;;;5014896;28;20042;-78
2023/03/15 00:50:17;;;;;;;17.13;8.55;;;21.70;55.80;;;;;;5031132;28;20041;-78
2023/03/15 00:52:44;;;;;;;22.27;8.93;;;21.90;56.10;;;;;;5014586;28;20124;-79
2023/03/15 00:55:13;;;;;;;23.90;7.68;;;21.80;56.00;;;;;;5030408;28;20048;-78
2023/03/15 00:57:41;;;;;;;22.08;8.23;;;21.70;56.00;;;;;;5031266;28;20077;-78
2023/03/15 01:00:10;;;;;;;18.25;7.65;;;21.90;55.90;;;;;;5014779;28;20041;-79
2023/03/15 01:02:36;;;;;;;15.25;6.25;;;21.80;55.80;;;;;;5031128;28;20033;-78
2023/03/15 01:05:05;;;;;;;17.20;6.35;;;21.90;55.70;;;;;;5031259;28;20047;-78
2023/03/15 01:07:34;;;;;;;13.13;5.72;;;21.90;55.80;;;;;;5053267;28;20107;-78
2023/03/15 01:10:05;;;;;;;11.35;5.47;;;21.80;55.60;;;;;;5055100;28;20086;-79
2023/03/15 01:12:32;;;;;;;21.85;7.15;;;21.80;55.30;;;;;;5073060;28;20051;-78
2023/03/15 01:14:59;;;;;;;15.52;6.35;;;21.80;55.40;;;;;;5073246;28;20492;-78
2023/03/15 01:17:26;;;;;;;5.40;2.67;;;21.80;55.40;;;;;;5055341;28;20044;-78
2023/03/15 01:19:52;;;;;;;12.85;4.85;;;21.90;55.60;;;;;;5072937;28;20120;-79
2023/03/15 01:22:19;;;;;;;8.90;4.65;;;21.80;55.30;;;;;;5038653;28;20029;-79
2023/03/15 01:24:45;;;;;;;9.63;4.35;;;22.00;55.40;;;;;;5072956;28;20032;-78
2023/03/15 01:27:12;;;;;;;7.50;4.00;;;21.90;55.30;;;;;;5073211;28;20131;-79
2023/03/15 01:29:38;;;;;;;8.77;3.97;;;22.00;55.10;;;;;;5055296;28;20107;-78
2023/03/15 01:32:06;;;;;;;6.75;3.92;;;22.00;55.00;;;;;;5030238;28;20049;-78
2023/03/15 01:34:33;;;;;;;6.28;3.03;;;22.00;54.80;;;;;;5013796;28;20405;-78
2023/03/15 01:36:59;;;;;;;7.70;2.80;;;22.00;55.20;;;;;;5014130;28;20065;-78
2023/03/15 01:39:31;;;;;;;3.53;1.98;;;22.10;55.10;;;;;;5014069;28;20374;-79
2023/03/15 01:41:57;;;;;;;4.60;2.50;;;22.10;54.80;;;;;;5013883;28;20041;-78
2023/03/15 01:44:43;;;;;;;4.57;2.13;;;22.10;54.70;;;;;;4997666;28;20049;-79
2023/03/15 01:47:09;;;;;;;3.40;2.20;;;22.30;54.60;;;;;;5017602;28;20046;-79
2023/03/15 01:49:36;;;;;;;2.67;1.65;;;22.20;54.50;;;;;;4994309;28;20042;-79
2023/03/15 01:52:11;;;;;;;2.40;1.63;;;22.30;54.50;;;;;;4994086;28;20058;-79
2023/03/15 01:54:55;;;;;;;1.63;1.50;;;22.20;54.20;;;;;;4993937;28;20138;-78
2023/03/15 01:57:27;;;;;;;3.10;1.52;;;22.20;54.30;;;;;;5010160;28;20512;-78
2023/03/15 02:00:07;;;;;;;3.17;1.80;;;22.20;54.50;;;;;;5029900;28;20034;-78
2023/03/15 02:02:49;;;;;;;2.47;1.60;;;22.30;54.70;;;;;;5036764;28;20045;-79
2023/03/15 02:05:24;;;;;;;4.32;2.00;;;22.20;54.60;;;;;;5010034;28;20056;-78
2023/03/15 02:07:53;;;;;;;5.32;2.20;;;22.20;54.70;;;;;;4993814;28;20046;-78
2023/03/15 02:10:31;;;;;;;3.28;1.98;;;22.20;54.50;;;;;;5002424;28;20056;-78
2023/03/15 02:12:59;;;;;;;3.90;2.15;;;22.10;55.00;;;;;;5049683;28;20045;-79
2023/03/15 02:15:26;;;;;;;2.90;1.73;;;21.90;55.00;;;;;;5049704;28;20182;-75
2023/03/15 02:17:52;;;;;;;3.55;1.88;;;21.90;55.40;;;;;;5049541;28;20049;-78
2023/03/15 02:20:26;;;;;;;2.40;2.15;;;21.80;55.40;;;;;;5049653;28;20028;-78
2023/03/15 02:22:56;;;;;;;3.38;2.22;;;21.70;55.60;;;;;;5066020;28;20106;-78
2023/03/15 02:25:34;;;;;;;3.28;2.10;;;21.70;55.80;;;;;;5066153;28;20108;-78
2023/03/15 02:28:02;;;;;;;3.55;2.30;;;21.50;55.70;;;;;;5049452;28;20090;-79
2023/03/15 02:30:28;;;;;;;5.82;2.05;;;21.70;55.60;;;;;;5049424;28;20106;-78
2023/03/15 02:32:56;;;;;;;3.33;1.90;;;21.70;55.60;;;;;;5049086;28;20076;-79
2023/03/15 02:35:27;;;;;;;2.40;1.52;;;21.60;55.30;;;;;;5065703;28;20056;-78
2023/03/15 02:37:53;;;;;;;2.03;1.73;;;21.60;55.70;;;;;;5065948;28;20044;-78
2023/03/15 02:40:21;;;;;;;2.78;2.08;;;21.60;55.60;;;;;;5065767;28;20516;-78
2023/03/15 02:42:51;;;;;;;5.38;2.08;;;21.60;55.50;;;;;;5060154;28;20418;-79
2023/03/15 02:45:18;;;;;;;5.65;2.13;;;21.50;55.50;;;;;;5071546;28;20067;-79
2023/03/15 02:47:45;;;;;;;3.13;2.03;;;21.60;55.40;;;;;;5070167;28;20033;-79
2023/03/15 02:50:11;;;;;;;2.33;1.70;;;21.60;55.20;;;;;;5048869;28;20461;-78
2023/03/15 02:52:37;;;;;;;4.25;2.05;;;21.70;55.40;;;;;;5015779;28;20040;-77
2023/03/15 02:55:04;;;;;;;4.70;2.05;;;21.70;55.10;;;;;;5032529;28;20056;-79
2023/03/15 02:57:30;;;;;;;2.85;2.10;;;21.90;54.90;;;;;;5048925;28;20052;-78
2023/03/15 02:59:58;;;;;;;3.25;2.20;;;21.80;54.70;;;;;;5048833;28;20041;-79
2023/03/15 03:02:24;;;;;;;2.88;2.67;;;21.90;54.80;;;;;;5032294;28;20048;-78
2023/03/15 03:04:51;;;;;;;2.85;2.08;;;22.00;54.50;;;;;;5048780;28;20123;-79
2023/03/15 03:07:18;;;;;;;1.90;1.70;;;22.10;54.40;;;;;;5031777;28;20501;-79
2023/03/15 03:09:48;;;;;;;3.45;2.15;;;22.10;54.20;;;;;;5048384;28;20079;-79
2023/03/15 03:12:15;;;;;;;2.58;2.13;;;22.20;54.20;;;;;;5031717;28;20037;-79
2023/03/15 03:14:44;;;;;;;3.83;2.30;;;22.20;53.90;;;;;;5031982;28;20055;-79
2023/03/15 03:17:15;;;;;;;3.33;2.28;;;22.30;54.10;;;;;;5031916;28;20449;-78
2023/03/15 03:19:41;;;;;;;4.63;2.00;;;22.20;54.20;;;;;;5031690;28;20131;-79
2023/03/15 03:22:08;;;;;;;2.40;2.15;;;22.20;54.20;;;;;;5067659;28;20127;-79
2023/03/15 03:24:36;;;;;;;3.17;2.33;;;22.40;53.90;;;;;;5086725;28;20025;-79
2023/03/15 03:27:02;;;;;;;2.40;1.98;;;22.50;53.80;;;;;;5071089;28;20025;-79
2023/03/15 03:29:31;;;;;;;4.13;2.05;;;22.50;53.90;;;;;;5070062;28;20037;-79
2023/03/15 03:32:00;;;;;;;2.25;2.05;;;22.40;53.90;;;;;;5070166;28;20044;-78
2023/03/15 03:34:26;;;;;;;2.65;1.50;;;22.40;54.30;;;;;;5071257;28;20085;-79
2023/03/15 03:36:52;;;;;;;4.93;2.33;;;22.40;54.20;;;;;;5069586;28;20033;-79
2023/03/15 03:39:28;;;;;;;3.33;3.03;;;22.40;54.00;;;;;;5069691;28;20036;-78
2023/03/15 03:41:54;;;;;;;2.13;1.98;;;22.60;53.90;;;;;;5069744;28;20040;-79
2023/03/15 03:44:20;;;;;;;4.13;2.30;;;22.50;53.80;;;;;;5069868;28;20029;-78
2023/03/15 03:46:46;;;;;;;2.42;1.80;;;22.60;53.80;;;;;;5076498;28;20149;-78
2023/03/15 03:49:13;;;;;;;4.50;2.50;;;22.60;53.60;;;;;;5089937;28;20601;-78
2023/03/15 03:51:40;;;;;;;4.30;2.53;;;22.80;53.50;;;;;;5089809;28;20028;-78
2023/03/15 03:54:06;;;;;;;3.63;2.47;;;22.70;53.50;;;;;;5071939;28;20051;-79
2023/03/15 03:56:33;;;;;;;8.18;3.60;;;22.70;53.70;;;;;;5089691;28;20364;-78
2023/03/15 03:58:59;;;;;;;9.73;3.35;;;22.60;53.70;;;;;;5077675;28;20035;-78
2023/03/15 04:01:41;;;;;;;7.85;4.30;;;22.60;54.00;;;;;;5069650;28;20036;-78
2023/03/15 04:04:08;;;;;;;9.38;4.68;;;22.60;54.10;;;;;;5069464;28;20055;-77
2023/03/15 04:06:34;;;;;;;14.25;6.25;;;22.40;54.40;;;;;;5069220;28;20048;-78
2023/03/15 04:09:02;;;;;;;19.45;7.80;;;22.30;54.40;;;;;;5071027;28;20044;-78
2023/03/15 04:11:35;;;;;;;16.77;6.45;;;22.20;54.50;;;;;;5069004;28;20044;-79
2023/03/15 04:14:04;;;;;;;19.10;6.25;;;22.10;54.80;;;;;;5069534;28;20044;-78
2023/03/15 04:16:30;;;;;;;15.50;6.55;;;22.10;55.10;;;;;;5069154;28;20376;-78
2023/03/15 04:19:02;;;;;;;12.13;5.40;;;22.00;55.00;;;;;;5053231;28;20388;-78
2023/03/15 04:21:31;;;;;;;9.07;4.28;;;22.00;55.20;;;;;;5069454;28;20388;-78
2023/03/15 04:24:03;;;;;;;7.70;4.00;;;21.80;55.20;;;;;;5069437;28;20503;-78
2023/03/15 04:26:49;;;;;;;4.72;3.35;;;21.80;55.20;;;;;;5070281;28;20425;-78
2023/03/15 04:29:34;;;;;;;4.47;2.83;;;21.80;55.20;;;;;;5070611;28;20419;-78
2023/03/15 04:32:16;;;;;;;4.97;2.58;;;21.80;55.10;;;;;;5072560;28;20108;-78
2023/03/15 04:35:04;;;;;;;4.60;2.30;;;21.90;55.30;;;;;;5031415;28;20164;-79
2023/03/15 04:37:59;;;;;;;6.07;2.70;;;22.00;55.00;;;;;;4953115;28;20102;-78
2023/03/15 04:40:37;;;;;;;3.35;2.53;;;22.00;54.30;;;;;;4953571;28;20043;-78
2023/03/15 04:43:30;;;;;;;2.50;2.30;;;22.20;54.00;;;;;;4934432;29;20122;-77
2023/03/15 04:46:15;;;;;;;5.13;2.92;;;22.40;53.90;;;;;;4934281;29;20095;-79
2023/03/15 04:49:20;;;;;;;3.33;2.50;;;22.50;53.90;;;;;;4915349;29;20144;-79
2023/03/15 04:52:12;;;;;;;9.55;4.40;;;22.70;53.90;;;;;;4896144;29;20059;-78
2023/03/15 04:54:44;;;;;;;7.65;3.25;;;22.80;53.70;;;;;;4896474;29;20457;-79
2023/03/15 04:57:33;;;;;;;3.88;2.35;;;22.70;54.70;;;;;;4894209;29;20052;-80
2023/03/15 05:00:17;;;;;;;6.05;3.78;;;22.90;55.40;;;;;;4896341;29;20166;-81
2023/03/15 05:03:02;;;;;;;12.25;4.72;;;23.10;55.90;;;;;;4896522;29;20389;-77
2023/03/15 05:05:51;;;;;;;9.27;4.25;;;23.30;55.80;;;;;;4896050;29;20295;-79
2023/03/15 05:08:37;;;;;;;7.88;3.83;;;23.40;50.40;;;;;;4895604;29;20052;-80
2023/03/15 05:11:26;;;;;;;6.40;3.90;;;23.40;48.80;;;;;;4893603;29;20056;-82
2023/03/15 05:14:12;;;;;;;6.88;3.88;;;23.30;47.50;;;;;;4903284;29;20126;-81
2023/03/15 05:16:58;;;;;;;6.43;4.40;;;23.20;46.70;;;;;;4914638;29;20408;-79
2023/03/15 05:19:45;;;;;;;7.30;3.88;;;23.10;46.90;;;;;;4930901;29;20055;-81
2023/03/15 05:22:46;;;;;;;11.43;3.45;;;22.80;47.40;;;;;;4896003;29;20082;-81
2023/03/15 05:25:32;;;;;;;3.45;3.13;;;22.60;48.20;;;;;;4895591;29;20076;-81
2023/03/15 05:28:17;;;;;;;3.38;2.88;;;22.50;49.00;;;;;;4892734;29;20131;-82
2023/03/15 05:30:57;;;;;;;5.07;3.25;;;22.40;49.40;;;;;;4861764;29;20394;-81
2023/03/15 05:33:48;;;;;;;8.02;3.08;;;22.40;50.10;;;;;;4873846;29;20056;-79
2023/03/15 05:36:33;;;;;;;4.88;2.40;;;22.40;50.70;;;;;;4861193;29;20057;-77
2023/03/15 05:39:21;;;;;;;5.43;3.60;;;22.30;51.10;;;;;;4876877;29;20055;-77
2023/03/15 05:41:56;;;;;;;4.93;3.22;;;22.20;51.30;;;;;;4882428;29;20041;-78
2023/03/15 05:44:55;;;;;;;4.95;2.83;;;22.20;51.80;;;;;;4895456;29;20647;-80
2023/03/15 05:47:40;;;;;;;4.00;3.33;;;22.30;52.70;;;;;;4896337;29;20096;-78
2023/03/15 05:50:26;;;;;;;3.85;2.90;;;22.20;46.00;;;;;;4895154;29;20041;-80
2023/03/15 05:53:10;;;;;;;3.00;2.70;;;22.10;46.00;;;;;;4879590;29;20749;-78
2023/03/15 05:55:54;;;;;;;3.88;2.40;;;22.30;43.60;;;;;;4891943;28;20608;-79
2023/03/15 05:58:49;;;;;;;2.47;2.28;;;22.20;42.90;;;;;;4951879;29;20077;-78
2023/03/15 06:01:42;;;;;;;4.22;2.80;;;22.10;42.10;;;;;;4913576;29;20404;-78
2023/03/15 06:04:18;;;;;;;3.92;2.17;;;22.20;43.60;;;;;;4913832;29;20122;-78
2023/03/15 06:06:45;;;;;;;3.92;3.00;;;22.30;43.30;;;;;;4913666;29;20115;-78
2023/03/15 06:09:11;;;;;;;4.78;2.60;;;22.20;44.30;;;;;;4913333;29;20067;-77
2023/03/15 06:11:38;;;;;;;2.55;2.33;;;22.20;45.00;;;;;;4913424;29;20060;-79
2023/03/15 06:14:07;;;;;;;7.00;2.85;;;22.20;44.80;;;;;;4913669;29;20048;-79
2023/03/15 06:16:39;;;;;;;9.90;3.17;;;22.40;45.50;;;;;;4913686;29;20044;-79
2023/03/15 06:19:06;;;;;;;3.30;2.17;;;22.40;43.10;;;;;;4913490;29;20071;-79
2023/03/15 06:21:32;;;;;;;5.72;2.70;;;22.40;44.30;;;;;;4947149;29;20046;-76
2023/03/15 06:23:59;;;;;;;2.60;1.77;;;22.30;45.00;;;;;;4951870;29;20047;-78
2023/03/15 06:26:25;;;;;;;2.22;2.00;;;22.30;42.40;;;;;;4951534;29;20051;-76
2023/03/15 06:28:56;;;;;;;2.53;2.00;;;22.20;43.10;;;;;;4935319;29;20047;-77
2023/03/15 06:31:22;;;;;;;3.67;2.60;;;22.30;43.20;;;;;;4951233;29;20055;-75
2023/03/15 06:33:55;;;;;;;3.70;1.98;;;22.20;44.30;;;;;;4935518;29;20068;-75
2023/03/15 06:36:23;;;;;;;2.80;1.95;;;22.40;45.10;;;;;;4988657;28;20038;-75
2023/03/15 06:38:52;;;;;;;5.40;3.13;;;22.60;46.50;;;;;;4998395;28;20527;-76
2023/03/15 06:41:19;;;;;;;7.72;2.60;;;22.70;50.30;;;;;;5013180;28;20056;-79
2023/03/15 06:43:45;;;;;;;6.13;3.13;;;23.10;48.40;;;;;;5029422;28;20033;-80
2023/03/15 06:46:12;;;;;;;5.72;3.13;;;23.20;45.70;;;;;;5012667;28;20124;-77
2023/03/15 06:48:39;;;;;;;3.67;2.20;;;23.20;47.10;;;;;;5012729;28;20076;-80
2023/03/15 06:51:08;;;;;;;5.80;2.83;;;23.40;47.70;;;;;;5012628;28;20037;-78
2023/03/15 06:53:34;;;;;;;4.32;2.55;;;23.20;44.60;;;;;;5064944;28;20055;-77
2023/03/15 06:56:00;;;;;;;2.53;2.33;;;23.40;48.30;;;;;;5070535;28;20074;-78
2023/03/15 06:58:26;;;;;;;3.72;2.47;;;23.40;42.30;;;;;;5071363;28;20071;-79
2023/03/15 07:00:52;;;;;;;8.45;2.80;;;23.40;42.10;;;;;;5071381;28;20032;-79
2023/03/15 07:03:20;;;;;;;1.98;1.80;;;23.60;41.80;;;;;;5071467;28;20036;-76
2023/03/15 07:05:48;;;;;;;2.85;2.00;;;23.50;47.50;;;;;;5071355;28;20043;-76
2023/03/15 07:08:14;;;;;;;2.22;1.17;;;23.50;52.60;;;;;;5071420;28;20067;-75
2023/03/15 07:10:40;;;;;;;4.28;2.25;;;23.70;51.80;;;;;;5064244;28;20138;-77
2023/03/15 07:13:08;;;;;;;4.90;2.85;;;23.80;42.30;;;;;;5050950;28;20132;-78
2023/03/15 07:15:38;;;;;;;4.60;2.40;;;23.60;39.50;;;;;;5051294;28;20040;-79
2023/03/15 07:18:04;;;;;;;1.10;1.00;;;23.70;37.80;;;;;;5050998;28;20033;-79
2023/03/15 07:20:30;;;;;;;1.63;0.90;;;23.70;38.60;;;;;;5057190;28;20047;-80
2023/03/15 07:22:56;;;;;;;1.38;0.85;;;23.70;49.70;;;;;;5051317;28;20060;-80
2023/03/15 07:25:24;;;;;;;9.93;1.48;;;23.80;51.60;;;;;;5033489;28;20040;-79
2023/03/15 07:27:51;;;;;;;5.43;2.75;;;23.90;50.50;;;;;;5019047;28;20033;-77
2023/03/15 07:30:19;;;;;;;8.02;2.90;;;23.90;44.40;;;;;;5071171;28;20024;-80
2023/03/15 07:32:45;;;;;;;2.13;1.35;;;23.80;40.00;;;;;;5065146;28;20067;-82
2023/03/15 07:35:12;;;;;;;2.30;1.75;;;23.90;45.10;;;;;;5051038;28;20112;-80
2023/03/15 07:37:38;;;;;;;2.78;1.83;;;23.80;49.00;;;;;;5032981;28;20087;-80
2023/03/15 07:40:08;;;;;;;1.50;1.35;;;23.90;49.10;;;;;;5062846;28;20040;-80
2023/03/15 07:42:36;;;;;;;6.00;1.70;;;23.90;48.80;;;;;;5071056;28;20532;-78
2023/03/15 07:45:03;;;;;;;7.45;2.10;;;23.90;48.20;;;;;;5035443;28;20064;-78
2023/03/15 07:47:29;;;;;;;3.78;2.60;;;24.10;49.10;;;;;;5070870;28;20512;-81
2023/03/15 07:49:55;;;;;;;3.53;2.83;;;24.10;48.10;;;;;;5070823;28;20116;-78
2023/03/15 07:52:22;;;;;;;2.83;2.15;;;24.10;41.60;;;;;;5070916;28;20147;-81
2023/03/15 07:54:48;;;;;;;6.47;2.80;;;24.00;41.90;;;;;;5057154;28;20503;-80
2023/03/15 07:57:14;;;;;;;4.53;2.92;;;23.90;41.30;;;;;;5050632;28;20020;-78
2023/03/15 07:59:40;;;;;;;3.63;2.80;;;24.00;42.40;;;;;;5050755;28;20021;-81
2023/03/15 08:02:08;;;;;;;4.22;2.92;;;24.10;42.40;;;;;;5053220;28;20037;-81
2023/03/15 08:04:34;;;;;;;3.92;2.88;;;24.10;45.10;;;;;;5051472;28;20079;-79
2023/03/15 08:07:00;;;;;;;4.07;2.67;;;24.10;44.20;;;;;;5054549;28;20471;-78
2023/03/15 08:09:26;;;;;;;3.30;2.80;;;24.20;46.70;;;;;;5054497;28;20203;-82
2023/03/15 08:11:52;;;;;;;3.13;2.78;;;24.20;41.40;;;;;;5054356;28;20616;-79
2023/03/15 08:14:18;;;;;;;4.47;2.90;;;24.10;43.70;;;;;;5054164;28;20037;-80
2023/03/15 08:16:44;;;;;;;5.25;2.90;;;24.20;41.60;;;;;;5054346;28;20372;-81
2023/03/15 08:19:10;;;;;;;5.10;3.00;;;24.20;43.00;;;;;;5054099;28;20029;-79
2023/03/15 08:21:36;;;;;;;5.38;3.08;;;24.10;42.50;;;;;;5054394;28;20021;-77
2023/03/15 08:24:03;;;;;;;2.78;1.98;;;24.20;39.90;;;;;;5054200;28;20036;-79
2023/03/15 08:26:29;;;;;;;3.00;2.70;;;24.20;42.80;;;;;;5054376;28;20033;-80
2023/03/15 08:28:55;;;;;;;2.95;2.65;;;24.30;43.60;;;;;;5035780;28;20040;-80
2023/03/15 08:31:21;;;;;;;4.18;2.78;;;24.20;42.00;;;;;;5054293;28;20465;-80
2023/03/15 08:33:47;;;;;;;3.65;3.30;;;24.30;39.10;;;;;;5002065;28;20048;-76
2023/03/15 08:36:13;;;;;;;8.55;3.05;;;24.20;44.60;;;;;;5054101;28;20448;-79
2023/03/15 08:38:40;;;;;;;5.20;2.65;;;24.30;39.00;;;;;;5036048;28;20052;-76
2023/03/15 08:41:06;;;;;;;3.25;2.92;;;24.30;39.50;;;;;;5053790;28;20115;-74
2023/03/15 08:43:32;;;;;;;4.72;2.35;;;24.20;40.40;;;;;;5053832;28;20453;-77
2023/03/15 08:45:58;;;;;;;5.55;3.05;;;24.30;39.70;;;;;;5053665;28;20405;-78
2023/03/15 08:48:24;;;;;;;6.25;3.33;;;24.30;39.00;;;;;;5053681;28;20037;-76
2023/03/15 08:50:50;;;;;;;7.97;3.60;;;24.40;40.30;;;;;;5053838;28;20041;-79
2023/03/15 08:53:16;;;;;;;3.58;2.53;;;24.30;40.50;;;;;;5053697;28;20533;-75
2023/03/15 08:55:43;;;;;;;8.35;3.35;;;24.40;43.20;;;;;;5053683;28;20187;-75
2023/03/15 08:58:09;;;;;;;5.32;2.92;;;24.40;39.70;;;;;;5053613;28;20036;-75
2023/03/15 09:00:36;;;;;;;3.55;2.60;;;24.50;39.60;;;;;;5053573;28;20392;-75
2023/03/15 09:03:03;;;;;;;4.47;2.67;;;24.50;41.10;;;;;;5053586;28;20116;-73
2023/03/15 09:05:29;;;;;;;3.60;2.60;;;24.50;42.00;;;;;;5050327;28;20045;-78
2023/03/15 09:07:55;;;;;;;8.10;3.30;;;24.50;45.20;;;;;;5053328;28;20033;-82
2023/03/15 09:10:21;;;;;;;5.20;3.10;;;24.50;40.00;;;;;;5052880;28;20041;-78
2023/03/15 09:12:51;;;;;;;5.50;2.92;;;24.50;43.20;;;;;;5053240;28;20122;-79
2023/03/15 09:15:18;;;;;;;3.45;2.67;;;24.50;39.70;;;;;;5035615;28;20033;-79
2023/03/15 09:17:44;;;;;;;4.43;2.45;;;24.50;38.20;;;;;;5052545;28;20060;-76
2023/03/15 09:20:15;;;;;;;2.33;2.13;;;24.60;40.30;;;;;;5053230;28;20025;-75
2023/03/15 09:22:51;;;;;;;3.55;2.72;;;24.60;38.40;;;;;;5053366;28;20036;-77
2023/03/15 09:25:17;;;;;;;6.30;3.35;;;24.50;39.90;;;;;;5053145;28;20033;-76
2023/03/15 09:27:43;;;;;;;4.10;2.92;;;24.50;41.00;;;;;;5056776;28;20025;-75
2023/03/15 09:30:09;;;;;;;4.20;2.45;;;24.50;41.30;;;;;;5072934;28;20097;-78
2023/03/15 09:32:36;;;;;;;4.75;2.58;;;24.60;39.00;;;;;;5073075;28;20036;-77
2023/03/15 09:35:03;;;;;;;5.93;2.58;;;24.60;39.00;;;;;;5072893;28;20472;-78
2023/03/15 09:37:29;;;;;;;4.57;2.92;;;24.70;42.00;;;;;;5073044;28;20119;-81
2023/03/15 09:39:55;;;;;;;6.22;3.03;;;24.70;41.60;;;;;;5072765;28;20028;-83
2023/03/15 09:42:55;;;;;;;7.93;2.65;;;25.00;45.00;;;;;;5073146;28;20132;-82
2023/03/15 09:45:47;;;;;;;8.23;3.08;;;25.30;45.00;;;;;;5073065;28;20119;-80
2023/03/15 09:48:25;;;;;;;5.78;3.15;;;25.30;43.90;;;;;;5062630;28;20041;-80
2023/03/15 09:51:18;;;;;;;3.75;2.50;;;25.60;36.70;;;;;;5052973;28;20025;-78
2023/03/15 09:54:10;;;;;;;5.18;2.55;;;25.30;37.90;;;;;;5053007;28;20033;-78
2023/03/15 09:56:55;;;;;;;4.70;2.10;;;25.20;41.40;;;;;;5052340;28;20037;-77
2023/03/15 09:59:33;;;;;;;3.55;2.30;;;25.50;40.30;;;;;;5052490;28;20032;-79
2023/03/15 10:02:11;;;;;;;4.88;2.22;;;25.30;39.70;;;;;;5054866;28;20065;-80
2023/03/15 10:04:39;;;;;;;3.05;2.10;;;25.30;40.50;;;;;;5052407;28;20033;-77
2023/03/15 10:07:11;;;;;;;3.13;1.45;;;25.30;37.90;;;;;;5052163;28;20029;-81
2023/03/15 10:09:38;;;;;;;3.22;2.42;;;25.30;50.10;;;;;;5052491;28;20094;-78
2023/03/15 10:12:14;;;;;;;2.47;1.92;;;25.40;41.10;;;;;;5052343;28;20626;-77
2023/03/15 10:14:46;;;;;;;3.30;2.05;;;25.30;36.80;;;;;;5052466;28;20519;-80
2023/03/15 10:17:25;;;;;;;2.53;1.95;;;25.20;36.40;;;;;;5052266;28;20032;-79
2023/03/15 10:20:02;;;;;;;5.00;2.45;;;25.20;37.00;;;;;;5052003;28;20033;-76
2023/03/15 10:22:49;;;;;;;49.63;32.08;;;25.10;36.50;;;;;;5052377;28;20029;-75
2023/03/15 10:25:28;;;;;;;4.80;2.53;;;25.10;36.90;;;;;;5052077;28;20040;-81
2023/03/15 10:28:05;;;;;;;5.57;2.40;;;25.20;36.60;;;;;;5033254;28;20492;-76
2023/03/15 10:30:33;;;;;;;4.50;2.67;;;25.20;38.00;;;;;;5052147;28;20535;-77
2023/03/15 10:33:05;;;;;;;3.92;2.00;;;25.30;36.50;;;;;;5052045;28;20033;-76
2023/03/15 10:35:31;;;;;;;2.72;2.08;;;25.30;41.30;;;;;;5053315;28;20069;-76
2023/03/15 10:37:58;;;;;;;2.83;1.50;;;25.10;37.00;;;;;;5052003;28;20021;-74
2023/03/15 10:40:44;;;;;;;2.00;1.60;;;25.10;38.40;;;;;;5033623;28;20040;-77
2023/03/15 10:43:24;;;;;;;11.18;2.70;;;25.30;47.20;;;;;;5051792;28;20033;-75
2023/03/15 10:46:05;;;;;;;4.40;1.80;;;25.70;50.30;;;;;;5051847;28;20041;-74
2023/03/15 10:48:37;;;;;;;2.97;1.60;;;25.90;37.60;;;;;;5051661;28;20044;-77
2023/03/15 10:51:19;;;;;;;2.20;1.85;;;25.70;35.60;;;;;;5051811;28;20090;-75
2023/03/15 10:53:58;;;;;;;4.80;2.10;;;25.70;38.50;;;;;;5051514;28;20122;-78
2023/03/15 10:56:27;;;;;;;3.15;1.92;;;25.50;38.60;;;;;;5051717;28;20045;-76
2023/03/15 10:58:55;;;;;;;3.20;1.50;;;25.40;38.30;;;;;;5051411;28;20128;-76
2023/03/15 11:01:33;;;;;;;3.30;1.80;;;25.40;36.40;;;;;;5051618;28;20033;-76
2023/03/15 11:04:05;;;;;;;4.50;3.40;;;25.30;35.10;;;;;;5051598;28;20029;-76
2023/03/15 11:06:45;;;;;;;10.93;2.10;;;25.40;45.50;;;;;;5051478;28;20435;-76
2023/03/15 11:09:14;;;;;;;3.35;2.22;;;25.80;48.70;;;;;;5051152;28;20076;-79
2023/03/15 11:11:58;;;;;;;3.05;1.70;;;25.80;33.50;;;;;;5051291;28;20057;-78
2023/03/15 11:14:25;;;;;;;4.68;1.75;;;25.70;35.00;;;;;;5015975;28;20070;-78
2023/03/15 11:16:55;;;;;;;6.00;3.70;;;25.50;34.00;;;;;;5051428;28;20543;-77
2023/03/15 11:19:28;;;;;;;7.80;2.70;;;25.40;33.40;;;;;;5051051;28;20384;-74
2023/03/15 11:21:57;;;;;;;4.43;1.42;;;25.30;46.90;;;;;;5051271;28;20036;-76
2023/03/15 11:24:25;;;;;;;2.13;1.27;;;25.50;47.70;;;;;;5051273;28;20041;-77
2023/03/15 11:26:54;;;;;;;4.13;1.90;;;25.40;48.60;;;;;;5051311;28;20036;-75
2023/03/15 11:29:24;;;;;;;2.00;1.27;;;25.30;49.00;;;;;;5062273;28;20112;-77
2023/03/15 11:31:51;;;;;;;3.88;1.75;;;25.30;47.60;;;;;;5051105;28;20051;-80
2023/03/15 11:34:54;;;;;;;1.02;0.93;;;25.30;50.60;;;;;;5050919;28;20037;-76
2023/03/15 11:37:36;;;;;;;;;;;25.30;50.50;;;;;;5051724;28;20475;-75
2023/03/15 11:40:22;;;;;;;4.45;1.55;;;25.20;49.70;;;;;;5052563;28;20316;-80
2023/03/15 11:43:21;;;;;;;3.78;1.33;;;25.30;51.20;;;;;;5012679;28;20568;-75
2023/03/15 11:45:55;;;;;;;2.55;1.25;;;25.20;50.90;;;;;;5012785;28;20489;-77
2023/03/15 11:48:50;;;;;;;3.58;1.45;;;25.10;51.50;;;;;;5006493;28;20402;-79
2023/03/15 11:51:16;;;;;;;;;;;25.00;50.30;;;;;;5013054;28;20514;-76
2023/03/15 11:53:48;;;;;;;2.40;1.60;;;25.00;50.10;;;;;;5012897;28;20013;-75
2023/03/15 11:56:26;;;;;;;2.37;1.43;;;25.00;52.80;;;;;;5012650;28;20169;-80
2023/03/15 11:59:00;;;;;;;4.47;1.52;;;25.00;52.90;;;;;;5012786;28;20049;-75
2023/03/15 12:01:27;;;;;;;5.93;1.50;;;25.00;52.60;;;;;;5012401;28;20100;-78
2023/03/15 12:04:28;;;;;;;1.23;0.98;;;24.90;53.70;;;;;;5015465;28;20038;-79
2023/03/15 12:06:55;;;;;;;3.60;0.98;;;25.00;53.60;;;;;;5020062;28;20034;-76
2023/03/15 12:09:35;;;;;;;3.13;1.50;;;24.80;53.40;;;;;;5031865;28;20111;-76
2023/03/15 12:12:25;;;;;;;3.78;1.50;;;24.80;53.30;;;;;;5051530;28;20056;-77
2023/03/15 12:15:13;;;;;;;1.00;0.90;;;24.90;52.90;;;;;;5090780;28;20042;-80
2023/03/15 12:17:45;;;;;;;2.72;1.15;;;24.80;53.60;;;;;;5093507;28;20043;-75
2023/03/15 12:20:16;;;;;;;1.80;1.50;;;24.70;53.70;;;;;;5094283;28;20047;-77
2023/03/15 12:23:03;;;;;;;3.33;1.67;;;24.80;53.30;;;;;;5094756;28;20119;-75
2023/03/15 12:26:04;;;;;;;3.22;1.40;;;24.70;52.90;;;;;;5094598;28;20494;-79
2023/03/15 12:28:49;;;;;;;4.63;1.88;;;24.70;52.80;;;;;;5084299;28;20127;-76
2023/03/15 12:31:15;;;;;;;1.38;1.27;;;24.80;52.30;;;;;;5074046;28;20040;-77
2023/03/15 12:33:52;;;;;;;4.45;2.10;;;24.70;52.00;;;;;;5074232;28;20040;-78
2023/03/15 12:36:44;;;;;;;3.25;1.90;;;24.70;51.70;;;;;;5074002;28;20032;-79
2023/03/15 12:39:13;;;;;;;3.00;2.15;;;24.60;49.40;;;;;;5074148;28;20036;-78
2023/03/15 12:41:43;;;;;;;2.67;1.92;;;24.60;47.00;;;;;;5073916;28;20032;-72
2023/03/15 12:44:21;;;;;;;2.83;1.92;;;24.60;49.30;;;;;;5074039;28;20040;-78
2023/03/15 12:46:47;;;;;;;2.85;2.15;;;24.60;47.80;;;;;;5073785;28;20033;-76
2023/03/15 12:49:22;;;;;;;6.05;2.45;;;24.50;49.50;;;;;;5073796;28;20111;-76
2023/03/15 12:51:56;;;;;;;2.03;1.88;;;24.50;49.40;;;;;;5072613;28;20075;-76
2023/03/15 12:54:25;;;;;;;5.30;3.35;;;24.50;48.80;;;;;;5072267;28;20675;-79
2023/03/15 12:57:01;;;;;;;6.57;2.90;;;24.50;48.40;;;;;;5073636;28;20036;-80
2023/03/15 12:59:46;;;;;;;3.08;2.15;;;24.50;44.60;;;;;;5072618;28;20040;-76
2023/03/15 13:02:32;;;;;;;5.00;2.38;;;24.40;44.40;;;;;;5076964;28;20033;-76
2023/03/15 13:05:12;;;;;;;2.78;2.10;;;24.50;49.20;;;;;;5085821;28;20070;-76
2023/03/15 13:08:07;;;;;;;2.67;2.30;;;24.30;45.40;;;;;;5076970;28;20271;-77
2023/03/15 13:10:52;;;;;;;3.63;2.95;;;24.40;45.80;;;;;;5072831;28;20052;-82
2023/03/15 13:14:03;;;;;;;6.88;2.10;;;24.30;43.30;;;;;;5073093;28;20080;-81